Orangeburg, Kentucky
Current Conditions -  °F | °C
As of 6:35 AM on Friday 24 Oct 2014 (Local Time) from KFGX Reporting Station
Haze Haze  
Wind Chill: 37°   Ceiling: Unl
Heat Index: 37°   Visibility: 3mi
Dew Point: 37°   Wind: 3mph
Humidity: 98%   Direction: 240°WSW
Pressure: 30.14"   Gusts: NA
Location:  38.585°N, 83.7789°W
Report Text: KFGX 241035Z AUTO 24003KT 3SM BR CLR 03/03 A3014 RMK AO2 T00290026
Loading
Personal Weather Stations






























Interactive Weather Map
Tropical Storm Tracking
New forecast layout! Learn more

10-Day Weather Forecast

Advertisements
Track Severe Weather on mobile